sensor_id;sensor_type;location;lat;lon;timestamp;P1;durP1;ratioP1;P2;durP2;ratioP2
67065;SDS011;53978;43.846;25.952;2023-05-07T00:00:50;6.40;;;2.65;;
67065;SDS011;53978;43.846;25.952;2023-05-07T00:03:16;5.07;;;2.38;;
67065;SDS011;53978;43.846;25.952;2023-05-07T00:05:41;5.53;;;2.85;;
67065;SDS011;53978;43.846;25.952;2023-05-07T00:08:07;3.25;;;2.75;;
67065;SDS011;53978;43.846;25.952;2023-05-07T00:10:33;3.20;;;2.65;;
67065;SDS011;53978;43.846;25.952;2023-05-07T00:12:58;4.60;;;2.70;;
67065;SDS011;53978;43.846;25.952;2023-05-07T00:15:24;10.13;;;2.85;;
67065;SDS011;53978;43.846;25.952;2023-05-07T00:17:49;8.00;;;3.22;;
67065;SDS011;53978;43.846;25.952;2023-05-07T00:20:16;3.55;;;2.90;;
67065;SDS011;53978;43.846;25.952;2023-05-07T00:22:41;3.83;;;2.58;;
67065;SDS011;53978;43.846;25.952;2023-05-07T00:25:07;3.03;;;2.70;;
67065;SDS011;53978;43.846;25.952;2023-05-07T00:27:33;2.92;;;2.35;;
67065;SDS011;53978;43.846;25.952;2023-05-07T00:29:58;3.05;;;2.60;;
67065;SDS011;53978;43.846;25.952;2023-05-07T00:32:23;2.85;;;2.65;;
67065;SDS011;53978;43.846;25.952;2023-05-07T00:34:49;3.67;;;2.72;;
67065;SDS011;53978;43.846;25.952;2023-05-07T00:37:15;4.43;;;3.00;;
67065;SDS011;53978;43.846;25.952;2023-05-07T00:39:41;5.25;;;3.00;;
67065;SDS011;53978;43.846;25.952;2023-05-07T00:42:06;7.47;;;3.00;;
67065;SDS011;53978;43.846;25.952;2023-05-07T00:44:33;4.40;;;3.25;;
67065;SDS011;53978;43.846;25.952;2023-05-07T00:46:58;4.95;;;3.03;;
67065;SDS011;53978;43.846;25.952;2023-05-07T00:49:29;7.07;;;4.32;;
67065;SDS011;53978;43.846;25.952;2023-05-07T00:52:03;6.25;;;3.72;;
67065;SDS011;53978;43.846;25.952;2023-05-07T00:54:30;5.55;;;3.33;;
67065;SDS011;53978;43.846;25.952;2023-05-07T00:56:58;4.70;;;3.15;;
67065;SDS011;53978;43.846;25.952;2023-05-07T00:59:24;3.78;;;2.97;;
67065;SDS011;53978;43.846;25.952;2023-05-07T01:01:49;8.20;;;3.28;;
67065;SDS011;53978;43.846;25.952;2023-05-07T01:04:15;6.03;;;3.47;;
67065;SDS011;53978;43.846;25.952;2023-05-07T01:06:40;5.55;;;3.58;;
67065;SDS011;53978;43.846;25.952;2023-05-07T01:09:06;3.33;;;3.00;;
67065;SDS011;53978;43.846;25.952;2023-05-07T01:11:31;4.43;;;3.15;;
67065;SDS011;53978;43.846;25.952;2023-05-07T01:13:57;3.80;;;3.03;;
67065;SDS011;53978;43.846;25.952;2023-05-07T01:16:23;4.60;;;3.10;;
67065;SDS011;53978;43.846;25.952;2023-05-07T01:18:49;6.03;;;3.53;;
67065;SDS011;53978;43.846;25.952;2023-05-07T01:21:15;4.82;;;3.10;;
67065;SDS011;53978;43.846;25.952;2023-05-07T01:23:41;3.35;;;3.00;;
67065;SDS011;53978;43.846;25.952;2023-05-07T01:26:08;4.68;;;2.95;;
67065;SDS011;53978;43.846;25.952;2023-05-07T01:28:34;9.07;;;3.92;;
67065;SDS011;53978;43.846;25.952;2023-05-07T01:31:02;8.75;;;3.33;;
67065;SDS011;53978;43.846;25.952;2023-05-07T01:33:29;2.80;;;2.53;;
67065;SDS011;53978;43.846;25.952;2023-05-07T01:35:57;5.10;;;2.83;;
67065;SDS011;53978;43.846;25.952;2023-05-07T01:38:25;4.50;;;3.20;;
67065;SDS011;53978;43.846;25.952;2023-05-07T01:40:50;5.38;;;3.22;;
67065;SDS011;53978;43.846;25.952;2023-05-07T01:43:16;6.63;;;3.03;;
67065;SDS011;53978;43.846;25.952;2023-05-07T01:45:41;4.15;;;2.88;;
67065;SDS011;53978;43.846;25.952;2023-05-07T01:48:10;3.75;;;2.92;;
67065;SDS011;53978;43.846;25.952;2023-05-07T01:50:36;3.08;;;2.63;;
67065;SDS011;53978;43.846;25.952;2023-05-07T01:53:02;4.47;;;3.03;;
67065;SDS011;53978;43.846;25.952;2023-05-07T01:55:27;3.15;;;2.70;;
67065;SDS011;53978;43.846;25.952;2023-05-07T01:57:53;3.63;;;2.72;;
67065;SDS011;53978;43.846;25.952;2023-05-07T02:00:18;3.45;;;2.78;;
67065;SDS011;53978;43.846;25.952;2023-05-07T02:02:44;3.20;;;2.72;;
67065;SDS011;53978;43.846;25.952;2023-05-07T02:05:09;3.00;;;2.70;;
67065;SDS011;53978;43.846;25.952;2023-05-07T02:07:35;4.13;;;2.92;;
67065;SDS011;53978;43.846;25.952;2023-05-07T02:10:00;4.60;;;2.45;;
67065;SDS011;53978;43.846;25.952;2023-05-07T02:12:26;4.57;;;3.00;;
67065;SDS011;53978;43.846;25.952;2023-05-07T02:14:51;4.05;;;2.70;;
67065;SDS011;53978;43.846;25.952;2023-05-07T02:17:16;5.32;;;2.65;;
67065;SDS011;53978;43.846;25.952;2023-05-07T02:19:44;3.85;;;3.00;;
67065;SDS011;53978;43.846;25.952;2023-05-07T02:22:12;4.07;;;3.20;;
67065;SDS011;53978;43.846;25.952;2023-05-07T02:24:37;3.90;;;3.00;;
67065;SDS011;53978;43.846;25.952;2023-05-07T02:27:03;6.90;;;3.10;;
67065;SDS011;53978;43.846;25.952;2023-05-07T02:29:31;6.03;;;3.25;;
67065;SDS011;53978;43.846;25.952;2023-05-07T02:31:56;5.25;;;3.45;;
67065;SDS011;53978;43.846;25.952;2023-05-07T02:34:21;5.82;;;3.47;;
67065;SDS011;53978;43.846;25.952;2023-05-07T02:36:47;5.10;;;3.45;;
67065;SDS011;53978;43.846;25.952;2023-05-07T02:39:12;7.00;;;3.83;;
67065;SDS011;53978;43.846;25.952;2023-05-07T02:41:38;8.18;;;3.45;;
67065;SDS011;53978;43.846;25.952;2023-05-07T02:44:04;4.38;;;3.42;;
67065;SDS011;53978;43.846;25.952;2023-05-07T02:46:32;10.57;;;3.55;;
67065;SDS011;53978;43.846;25.952;2023-05-07T02:48:58;4.85;;;3.40;;
67065;SDS011;53978;43.846;25.952;2023-05-07T02:51:25;6.03;;;3.35;;
67065;SDS011;53978;43.846;25.952;2023-05-07T02:53:51;5.82;;;3.15;;
67065;SDS011;53978;43.846;25.952;2023-05-07T02:56:17;5.43;;;3.10;;
67065;SDS011;53978;43.846;25.952;2023-05-07T02:58:42;4.00;;;3.00;;
67065;SDS011;53978;43.846;25.952;2023-05-07T03:01:08;4.25;;;3.10;;
67065;SDS011;53978;43.846;25.952;2023-05-07T03:03:34;5.80;;;3.17;;
67065;SDS011;53978;43.846;25.952;2023-05-07T03:05:59;4.07;;;3.05;;
67065;SDS011;53978;43.846;25.952;2023-05-07T03:08:25;3.80;;;2.90;;
67065;SDS011;53978;43.846;25.952;2023-05-07T03:10:52;3.95;;;2.92;;
67065;SDS011;53978;43.846;25.952;2023-05-07T03:13:20;7.43;;;2.85;;
67065;SDS011;53978;43.846;25.952;2023-05-07T03:15:46;4.75;;;3.22;;
67065;SDS011;53978;43.846;25.952;2023-05-07T03:18:11;3.90;;;2.80;;
67065;SDS011;53978;43.846;25.952;2023-05-07T03:20:37;3.65;;;3.05;;
67065;SDS011;53978;43.846;25.952;2023-05-07T03:23:02;3.58;;;2.90;;
67065;SDS011;53978;43.846;25.952;2023-05-07T03:25:28;3.60;;;3.10;;
67065;SDS011;53978;43.846;25.952;2023-05-07T03:27:55;3.80;;;2.95;;
67065;SDS011;53978;43.846;25.952;2023-05-07T03:30:21;3.97;;;2.88;;
67065;SDS011;53978;43.846;25.952;2023-05-07T03:32:48;3.13;;;2.80;;
67065;SDS011;53978;43.846;25.952;2023-05-07T03:35:14;6.80;;;3.00;;
67065;SDS011;53978;43.846;25.952;2023-05-07T03:37:39;5.95;;;2.92;;
67065;SDS011;53978;43.846;25.952;2023-05-07T03:40:05;3.30;;;2.55;;
67065;SDS011;53978;43.846;25.952;2023-05-07T03:42:31;5.28;;;2.90;;
67065;SDS011;53978;43.846;25.952;2023-05-07T03:44:57;3.08;;;2.78;;
67065;SDS011;53978;43.846;25.952;2023-05-07T03:47:22;4.63;;;2.58;;
67065;SDS011;53978;43.846;25.952;2023-05-07T03:49:47;4.22;;;2.80;;
67065;SDS011;53978;43.846;25.952;2023-05-07T03:52:17;3.33;;;2.72;;
67065;SDS011;53978;43.846;25.952;2023-05-07T03:54:47;3.83;;;2.80;;
67065;SDS011;53978;43.846;25.952;2023-05-07T03:57:13;3.25;;;2.72;;
67065;SDS011;53978;43.846;25.952;2023-05-07T03:59:38;9.00;;;2.80;;
67065;SDS011;53978;43.846;25.952;2023-05-07T04:02:04;5.68;;;2.25;;
67065;SDS011;53978;43.846;25.952;2023-05-07T04:04:33;3.35;;;2.47;;
67065;SDS011;53978;43.846;25.952;2023-05-07T04:07:01;7.38;;;3.40;;
67065;SDS011;53978;43.846;25.952;2023-05-07T04:09:29;6.25;;;2.80;;
67065;SDS011;53978;43.846;25.952;2023-05-07T04:11:55;3.78;;;2.65;;
67065;SDS011;53978;43.846;25.952;2023-05-07T04:14:20;3.47;;;2.63;;
67065;SDS011;53978;43.846;25.952;2023-05-07T04:16:46;3.90;;;2.60;;
67065;SDS011;53978;43.846;25.952;2023-05-07T04:19:13;2.92;;;2.55;;
67065;SDS011;53978;43.846;25.952;2023-05-07T04:21:39;9.60;;;2.50;;
67065;SDS011;53978;43.846;25.952;2023-05-07T04:24:07;2.42;;;2.20;;
67065;SDS011;53978;43.846;25.952;2023-05-07T04:26:35;4.50;;;2.53;;
67065;SDS011;53978;43.846;25.952;2023-05-07T04:29:03;4.72;;;2.40;;
67065;SDS011;53978;43.846;25.952;2023-05-07T04:31:28;4.40;;;2.28;;
67065;SDS011;53978;43.846;25.952;2023-05-07T04:33:54;4.55;;;2.72;;
67065;SDS011;53978;43.846;25.952;2023-05-07T04:36:21;3.10;;;2.47;;
67065;SDS011;53978;43.846;25.952;2023-05-07T04:38:47;3.42;;;2.25;;
67065;SDS011;53978;43.846;25.952;2023-05-07T04:41:14;3.90;;;2.38;;
67065;SDS011;53978;43.846;25.952;2023-05-07T04:43:41;3.20;;;2.50;;
67065;SDS011;53978;43.846;25.952;2023-05-07T04:46:07;3.60;;;2.72;;
67065;SDS011;53978;43.846;25.952;2023-05-07T04:48:33;6.18;;;2.67;;
67065;SDS011;53978;43.846;25.952;2023-05-07T04:50:58;4.25;;;2.97;;
67065;SDS011;53978;43.846;25.952;2023-05-07T04:53:24;5.55;;;2.78;;
67065;SDS011;53978;43.846;25.952;2023-05-07T04:55:54;4.65;;;2.58;;
67065;SDS011;53978;43.846;25.952;2023-05-07T04:58:21;5.35;;;2.92;;
67065;SDS011;53978;43.846;25.952;2023-05-07T05:00:47;4.30;;;2.92;;
67065;SDS011;53978;43.846;25.952;2023-05-07T05:03:13;5.20;;;2.88;;
67065;SDS011;53978;43.846;25.952;2023-05-07T05:05:40;4.90;;;2.88;;
67065;SDS011;53978;43.846;25.952;2023-05-07T05:08:06;2.92;;;2.63;;
67065;SDS011;53978;43.846;25.952;2023-05-07T05:10:34;5.22;;;2.88;;
67065;SDS011;53978;43.846;25.952;2023-05-07T05:13:02;3.72;;;2.45;;
67065;SDS011;53978;43.846;25.952;2023-05-07T05:15:27;5.03;;;2.47;;
67065;SDS011;53978;43.846;25.952;2023-05-07T05:17:52;4.97;;;2.80;;
67065;SDS011;53978;43.846;25.952;2023-05-07T05:20:18;4.55;;;3.15;;
67065;SDS011;53978;43.846;25.952;2023-05-07T05:22:43;4.18;;;2.95;;
67065;SDS011;53978;43.846;25.952;2023-05-07T05:25:09;3.35;;;3.05;;
67065;SDS011;53978;43.846;25.952;2023-05-07T05:27:34;5.30;;;3.30;;
67065;SDS011;53978;43.846;25.952;2023-05-07T05:30:00;3.22;;;2.92;;
67065;SDS011;53978;43.846;25.952;2023-05-07T05:32:26;6.25;;;3.80;;
67065;SDS011;53978;43.846;25.952;2023-05-07T05:34:51;7.05;;;3.28;;
67065;SDS011;53978;43.846;25.952;2023-05-07T05:37:17;8.38;;;3.85;;
67065;SDS011;53978;43.846;25.952;2023-05-07T05:39:42;7.57;;;3.55;;
67065;SDS011;53978;43.846;25.952;2023-05-07T05:42:08;8.52;;;3.45;;
67065;SDS011;53978;43.846;25.952;2023-05-07T05:44:33;7.20;;;3.67;;
67065;SDS011;53978;43.846;25.952;2023-05-07T05:46:58;7.38;;;4.25;;
67065;SDS011;53978;43.846;25.952;2023-05-07T05:49:26;6.85;;;3.45;;
67065;SDS011;53978;43.846;25.952;2023-05-07T05:51:52;5.57;;;2.92;;
67065;SDS011;53978;43.846;25.952;2023-05-07T05:54:17;7.35;;;3.05;;
67065;SDS011;53978;43.846;25.952;2023-05-07T05:56:43;4.28;;;2.65;;
67065;SDS011;53978;43.846;25.952;2023-05-07T05:59:08;8.88;;;2.83;;
67065;SDS011;53978;43.846;25.952;2023-05-07T06:01:33;8.20;;;3.25;;
67065;SDS011;53978;43.846;25.952;2023-05-07T06:03:59;5.53;;;3.20;;
67065;SDS011;53978;43.846;25.952;2023-05-07T06:06:25;4.32;;;2.67;;
67065;SDS011;53978;43.846;25.952;2023-05-07T06:08:50;3.58;;;2.33;;
67065;SDS011;53978;43.846;25.952;2023-05-07T06:11:16;2.30;;;2.10;;
67065;SDS011;53978;43.846;25.952;2023-05-07T06:13:41;2.85;;;2.40;;
67065;SDS011;53978;43.846;25.952;2023-05-07T06:16:07;3.10;;;2.50;;
67065;SDS011;53978;43.846;25.952;2023-05-07T06:18:32;3.15;;;2.08;;
67065;SDS011;53978;43.846;25.952;2023-05-07T06:20:58;3.60;;;2.42;;
67065;SDS011;53978;43.846;25.952;2023-05-07T06:23:23;7.32;;;2.40;;
67065;SDS011;53978;43.846;25.952;2023-05-07T06:25:49;4.95;;;2.38;;
67065;SDS011;53978;43.846;25.952;2023-05-07T06:28:17;6.18;;;2.70;;
67065;SDS011;53978;43.846;25.952;2023-05-07T06:30:45;3.78;;;2.50;;
67065;SDS011;53978;43.846;25.952;2023-05-07T06:33:10;3.28;;;2.28;;
67065;SDS011;53978;43.846;25.952;2023-05-07T06:35:38;2.88;;;2.17;;
67065;SDS011;53978;43.846;25.952;2023-05-07T06:38:04;8.18;;;2.88;;
67065;SDS011;53978;43.846;25.952;2023-05-07T06:40:29;6.82;;;2.20;;
67065;SDS011;53978;43.846;25.952;2023-05-07T06:42:54;3.88;;;1.77;;
67065;SDS011;53978;43.846;25.952;2023-05-07T06:45:25;2.63;;;2.05;;
67065;SDS011;53978;43.846;25.952;2023-05-07T06:47:52;4.43;;;2.20;;
67065;SDS011;53978;43.846;25.952;2023-05-07T06:50:18;2.92;;;1.75;;
67065;SDS011;53978;43.846;25.952;2023-05-07T06:52:44;3.55;;;1.90;;
67065;SDS011;53978;43.846;25.952;2023-05-07T06:55:12;3.60;;;1.60;;
67065;SDS011;53978;43.846;25.952;2023-05-07T06:57:58;2.97;;;1.77;;
67065;SDS011;53978;43.846;25.952;2023-05-07T07:00:26;3.60;;;1.90;;
67065;SDS011;53978;43.846;25.952;2023-05-07T07:03:06;1.70;;;1.60;;
67065;SDS011;53978;43.846;25.952;2023-05-07T07:05:38;1.60;;;1.50;;
67065;SDS011;53978;43.846;25.952;2023-05-07T07:08:14;4.28;;;1.88;;
67065;SDS011;53978;43.846;25.952;2023-05-07T07:10:40;6.65;;;1.83;;
67065;SDS011;53978;43.846;25.952;2023-05-07T07:13:06;2.08;;;1.40;;
67065;SDS011;53978;43.846;25.952;2023-05-07T07:15:31;2.80;;;1.52;;
67065;SDS011;53978;43.846;25.952;2023-05-07T07:17:59;3.25;;;1.58;;
67065;SDS011;53978;43.846;25.952;2023-05-07T07:20:32;2.35;;;1.80;;
67065;SDS011;53978;43.846;25.952;2023-05-07T07:22:58;2.75;;;2.00;;
67065;SDS011;53978;43.846;25.952;2023-05-07T07:25:23;4.35;;;1.90;;
67065;SDS011;53978;43.846;25.952;2023-05-07T07:27:49;5.80;;;1.85;;
67065;SDS011;53978;43.846;25.952;2023-05-07T07:30:14;5.22;;;2.60;;
67065;SDS011;53978;43.846;25.952;2023-05-07T07:32:40;8.07;;;1.77;;
67065;SDS011;53978;43.846;25.952;2023-05-07T07:35:06;4.65;;;1.65;;
67065;SDS011;53978;43.846;25.952;2023-05-07T07:37:41;3.08;;;1.85;;
67065;SDS011;53978;43.846;25.952;2023-05-07T07:40:07;3.92;;;1.60;;
67065;SDS011;53978;43.846;25.952;2023-05-07T07:42:32;2.38;;;2.10;;
67065;SDS011;53978;43.846;25.952;2023-05-07T07:44:58;2.95;;;2.25;;
67065;SDS011;53978;43.846;25.952;2023-05-07T07:47:23;2.47;;;1.75;;
67065;SDS011;53978;43.846;25.952;2023-05-07T07:49:49;2.03;;;1.83;;
67065;SDS011;53978;43.846;25.952;2023-05-07T07:52:14;10.88;;;1.80;;
67065;SDS011;53978;43.846;25.952;2023-05-07T07:54:40;3.78;;;1.75;;
67065;SDS011;53978;43.846;25.952;2023-05-07T07:57:11;3.90;;;1.73;;
67065;SDS011;53978;43.846;25.952;2023-05-07T07:59:36;2.92;;;2.30;;
67065;SDS011;53978;43.846;25.952;2023-05-07T08:02:20;4.32;;;1.70;;
67065;SDS011;53978;43.846;25.952;2023-05-07T08:04:46;2.72;;;1.63;;
67065;SDS011;53978;43.846;25.952;2023-05-07T08:07:42;2.70;;;1.30;;
67065;SDS011;53978;43.846;25.952;2023-05-07T08:10:27;1.88;;;1.67;;
67065;SDS011;53978;43.846;25.952;2023-05-07T08:13:03;3.45;;;1.60;;
67065;SDS011;53978;43.846;25.952;2023-05-07T08:15:32;7.50;;;1.50;;
67065;SDS011;53978;43.846;25.952;2023-05-07T08:18:01;1.48;;;1.38;;
67065;SDS011;53978;43.846;25.952;2023-05-07T08:20:27;2.25;;;1.60;;
67065;SDS011;53978;43.846;25.952;2023-05-07T08:22:57;3.92;;;1.50;;
67065;SDS011;53978;43.846;25.952;2023-05-07T08:25:22;2.95;;;1.65;;
67065;SDS011;53978;43.846;25.952;2023-05-07T08:27:48;1.83;;;1.33;;
67065;SDS011;53978;43.846;25.952;2023-05-07T08:30:13;2.72;;;1.50;;
67065;SDS011;53978;43.846;25.952;2023-05-07T08:32:42;1.80;;;1.45;;
67065;SDS011;53978;43.846;25.952;2023-05-07T08:35:10;2.00;;;1.40;;
67065;SDS011;53978;43.846;25.952;2023-05-07T08:38:10;2.75;;;1.40;;
67065;SDS011;53978;43.846;25.952;2023-05-07T08:40:44;1.30;;;1.20;;
67065;SDS011;53978;43.846;25.952;2023-05-07T08:46:51;2.15;;;1.50;;
67065;SDS011;53978;43.846;25.952;2023-05-07T08:49:21;2.38;;;1.58;;
67065;SDS011;53978;43.846;25.952;2023-05-07T08:51:50;1.73;;;1.60;;
67065;SDS011;53978;43.846;25.952;2023-05-07T08:54:16;1.73;;;1.60;;
67065;SDS011;53978;43.846;25.952;2023-05-07T08:56:42;6.78;;;1.50;;
67065;SDS011;53978;43.846;25.952;2023-05-07T08:59:08;4.82;;;1.63;;
67065;SDS011;53978;43.846;25.952;2023-05-07T09:01:33;2.42;;;1.60;;
67065;SDS011;53978;43.846;25.952;2023-05-07T09:04:01;6.15;;;1.80;;
67065;SDS011;53978;43.846;25.952;2023-05-07T09:06:26;1.42;;;1.33;;
67065;SDS011;53978;43.846;25.952;2023-05-07T09:08:52;6.53;;;1.67;;
67065;SDS011;53978;43.846;25.952;2023-05-07T09:11:22;2.67;;;1.40;;
67065;SDS011;53978;43.846;25.952;2023-05-07T09:13:48;4.03;;;1.30;;
67065;SDS011;53978;43.846;25.952;2023-05-07T09:16:14;2.95;;;1.50;;
67065;SDS011;53978;43.846;25.952;2023-05-07T09:18:43;2.05;;;1.35;;
67065;SDS011;53978;43.846;25.952;2023-05-07T09:21:16;4.70;;;1.45;;
67065;SDS011;53978;43.846;25.952;2023-05-07T09:23:42;1.95;;;1.30;;
67065;SDS011;53978;43.846;25.952;2023-05-07T09:26:07;2.83;;;1.38;;
67065;SDS011;53978;43.846;25.952;2023-05-07T09:28:39;4.55;;;1.27;;
67065;SDS011;53978;43.846;25.952;2023-05-07T09:31:08;5.80;;;1.38;;
67065;SDS011;53978;43.846;25.952;2023-05-07T09:33:35;1.73;;;1.40;;
67065;SDS011;53978;43.846;25.952;2023-05-07T09:36:04;5.38;;;2.22;;
67065;SDS011;53978;43.846;25.952;2023-05-07T09:38:30;2.60;;;1.88;;
67065;SDS011;53978;43.846;25.952;2023-05-07T09:43:35;1.88;;;1.30;;
67065;SDS011;53978;43.846;25.952;2023-05-07T09:46:06;4.82;;;1.30;;
67065;SDS011;53978;43.846;25.952;2023-05-07T09:48:37;5.25;;;1.30;;
67065;SDS011;53978;43.846;25.952;2023-05-07T09:51:07;6.30;;;1.30;;
67065;SDS011;53978;43.846;25.952;2023-05-07T09:53:36;1.33;;;1.17;;
67065;SDS011;53978;43.846;25.952;2023-05-07T09:56:03;2.05;;;1.30;;
67065;SDS011;53978;43.846;25.952;2023-05-07T09:58:28;1.98;;;1.20;;
67065;SDS011;53978;43.846;25.952;2023-05-07T10:00:54;3.05;;;1.30;;
67065;SDS011;53978;43.846;25.952;2023-05-07T10:03:21;1.70;;;1.30;;
67065;SDS011;53978;43.846;25.952;2023-05-07T10:05:47;1.80;;;1.13;;
67065;SDS011;53978;43.846;25.952;2023-05-07T10:08:12;4.65;;;1.13;;
67065;SDS011;53978;43.846;25.952;2023-05-07T10:10:39;4.47;;;1.35;;
67065;SDS011;53978;43.846;25.952;2023-05-07T10:13:05;1.63;;;1.30;;
67065;SDS011;53978;43.846;25.952;2023-05-07T10:15:35;1.65;;;1.30;;
67065;SDS011;53978;43.846;25.952;2023-05-07T10:18:01;2.28;;;1.52;;
67065;SDS011;53978;43.846;25.952;2023-05-07T10:20:28;3.58;;;1.33;;
67065;SDS011;53978;43.846;25.952;2023-05-07T10:22:54;3.15;;;1.35;;
67065;SDS011;53978;43.846;25.952;2023-05-07T10:25:22;3.33;;;1.25;;
67065;SDS011;53978;43.846;25.952;2023-05-07T10:27:51;3.75;;;1.52;;
67065;SDS011;53978;43.846;25.952;2023-05-07T10:30:30;2.40;;;1.10;;
67065;SDS011;53978;43.846;25.952;2023-05-07T10:33:03;2.25;;;1.10;;
67065;SDS011;53978;43.846;25.952;2023-05-07T10:35:31;2.15;;;1.38;;
67065;SDS011;53978;43.846;25.952;2023-05-07T10:38:01;3.20;;;1.50;;
67065;SDS011;53978;43.846;25.952;2023-05-07T10:40:27;2.72;;;1.48;;
67065;SDS011;53978;43.846;25.952;2023-05-07T10:42:56;3.22;;;1.40;;
67065;SDS011;53978;43.846;25.952;2023-05-07T10:45:25;1.67;;;1.33;;
67065;SDS011;53978;43.846;25.952;2023-05-07T10:50:37;3.58;;;2.05;;
67065;SDS011;53978;43.846;25.952;2023-05-07T10:55:50;3.30;;;1.52;;
67065;SDS011;53978;43.846;25.952;2023-05-07T11:00:57;1.25;;;1.15;;
67065;SDS011;53978;43.846;25.952;2023-05-07T11:03:23;3.30;;;1.27;;
67065;SDS011;53978;43.846;25.952;2023-05-07T11:06:08;1.60;;;1.50;;
67065;SDS011;53978;43.846;25.952;2023-05-07T11:11:17;2.72;;;1.30;;
67065;SDS011;53978;43.846;25.952;2023-05-07T11:13:49;2.40;;;1.50;;
67065;SDS011;53978;43.846;25.952;2023-05-07T11:16:22;2.40;;;1.65;;
67065;SDS011;53978;43.846;25.952;2023-05-07T11:18:52;2.38;;;1.30;;
67065;SDS011;53978;43.846;25.952;2023-05-07T11:21:38;1.40;;;1.30;;
67065;SDS011;53978;43.846;25.952;2023-05-07T11:24:05;1.17;;;1.08;;
67065;SDS011;53978;43.846;25.952;2023-05-07T11:29:16;1.35;;;1.20;;
67065;SDS011;53978;43.846;25.952;2023-05-07T11:31:43;5.00;;;1.30;;
67065;SDS011;53978;43.846;25.952;2023-05-07T11:34:11;4.60;;;1.40;;
67065;SDS011;53978;43.846;25.952;2023-05-07T11:36:41;4.55;;;1.33;;
67065;SDS011;53978;43.846;25.952;2023-05-07T11:39:22;2.28;;;1.30;;
67065;SDS011;53978;43.846;25.952;2023-05-07T11:41:48;2.33;;;1.30;;
67065;SDS011;53978;43.846;25.952;2023-05-07T11:44:20;1.50;;;1.20;;
67065;SDS011;53978;43.846;25.952;2023-05-07T11:46:45;2.20;;;1.50;;
67065;SDS011;53978;43.846;25.952;2023-05-07T11:49:11;2.35;;;1.33;;
67065;SDS011;53978;43.846;25.952;2023-05-07T11:51:37;1.63;;;1.20;;
67065;SDS011;53978;43.846;25.952;2023-05-07T11:54:05;2.58;;;1.48;;
67065;SDS011;53978;43.846;25.952;2023-05-07T11:56:36;2.28;;;1.60;;
67065;SDS011;53978;43.846;25.952;2023-05-07T11:59:02;2.97;;;1.35;;
67065;SDS011;53978;43.846;25.952;2023-05-07T12:01:27;3.05;;;1.27;;
67065;SDS011;53978;43.846;25.952;2023-05-07T12:03:53;2.20;;;1.20;;
67065;SDS011;53978;43.846;25.952;2023-05-07T12:06:18;1.73;;;1.50;;
67065;SDS011;53978;43.846;25.952;2023-05-07T12:08:45;3.15;;;1.75;;
67065;SDS011;53978;43.846;25.952;2023-05-07T12:11:16;3.33;;;1.75;;
67065;SDS011;53978;43.846;25.952;2023-05-07T12:13:54;1.42;;;1.20;;
67065;SDS011;53978;43.846;25.952;2023-05-07T12:16:20;3.87;;;1.33;;
67065;SDS011;53978;43.846;25.952;2023-05-07T12:18:46;3.45;;;1.50;;
67065;SDS011;53978;43.846;25.952;2023-05-07T12:21:14;1.38;;;1.27;;
67065;SDS011;53978;43.846;25.952;2023-05-07T12:23:42;1.33;;;1.20;;
67065;SDS011;53978;43.846;25.952;2023-05-07T12:26:13;3.78;;;1.67;;
67065;SDS011;53978;43.846;25.952;2023-05-07T12:28:38;3.25;;;1.63;;
67065;SDS011;53978;43.846;25.952;2023-05-07T12:31:04;3.95;;;1.38;;
67065;SDS011;53978;43.846;25.952;2023-05-07T12:33:30;6.72;;;1.80;;
67065;SDS011;53978;43.846;25.952;2023-05-07T12:35:57;2.70;;;1.50;;
67065;SDS011;53978;43.846;25.952;2023-05-07T12:38:23;1.85;;;1.60;;
67065;SDS011;53978;43.846;25.952;2023-05-07T12:40:49;3.20;;;1.27;;
67065;SDS011;53978;43.846;25.952;2023-05-07T12:43:19;3.03;;;1.60;;
67065;SDS011;53978;43.846;25.952;2023-05-07T12:45:45;1.45;;;1.35;;
67065;SDS011;53978;43.846;25.952;2023-05-07T12:48:12;1.63;;;1.40;;
67065;SDS011;53978;43.846;25.952;2023-05-07T12:50:38;4.25;;;1.45;;
67065;SDS011;53978;43.846;25.952;2023-05-07T12:53:04;2.28;;;1.48;;
67065;SDS011;53978;43.846;25.952;2023-05-07T12:55:39;2.55;;;1.38;;
67065;SDS011;53978;43.846;25.952;2023-05-07T12:58:18;2.05;;;1.30;;
67065;SDS011;53978;43.846;25.952;2023-05-07T13:00:50;2.70;;;1.40;;
67065;SDS011;53978;43.846;25.952;2023-05-07T13:03:28;6.57;;;1.45;;
67065;SDS011;53978;43.846;25.952;2023-05-07T13:05:59;2.78;;;1.42;;
67065;SDS011;53978;43.846;25.952;2023-05-07T13:08:26;1.48;;;1.38;;
67065;SDS011;53978;43.846;25.952;2023-05-07T13:10:59;2.47;;;1.50;;
67065;SDS011;53978;43.846;25.952;2023-05-07T13:13:28;3.20;;;1.55;;
67065;SDS011;53978;43.846;25.952;2023-05-07T13:15:57;5.60;;;1.30;;
67065;SDS011;53978;43.846;25.952;2023-05-07T13:18:23;4.63;;;1.80;;
67065;SDS011;53978;43.846;25.952;2023-05-07T13:20:50;2.88;;;1.90;;
67065;SDS011;53978;43.846;25.952;2023-05-07T13:23:16;2.17;;;1.40;;
67065;SDS011;53978;43.846;25.952;2023-05-07T13:25:42;2.60;;;1.60;;
67065;SDS011;53978;43.846;25.952;2023-05-07T13:28:07;5.75;;;1.55;;
67065;SDS011;53978;43.846;25.952;2023-05-07T13:30:33;1.55;;;1.17;;
67065;SDS011;53978;43.846;25.952;2023-05-07T13:33:01;3.30;;;1.70;;
67065;SDS011;53978;43.846;25.952;2023-05-07T13:35:26;3.08;;;1.38;;
67065;SDS011;53978;43.846;25.952;2023-05-07T13:37:52;2.38;;;1.40;;
67065;SDS011;53978;43.846;25.952;2023-05-07T13:40:18;1.65;;;1.50;;
67065;SDS011;53978;43.846;25.952;2023-05-07T13:42:46;1.60;;;1.50;;
67065;SDS011;53978;43.846;25.952;2023-05-07T13:45:19;2.50;;;1.58;;
67065;SDS011;53978;43.846;25.952;2023-05-07T13:47:45;2.97;;;1.50;;
67065;SDS011;53978;43.846;25.952;2023-05-07T13:50:11;4.78;;;1.40;;
67065;SDS011;53978;43.846;25.952;2023-05-07T13:52:40;3.15;;;1.60;;
67065;SDS011;53978;43.846;25.952;2023-05-07T13:55:08;3.92;;;1.50;;
67065;SDS011;53978;43.846;25.952;2023-05-07T13:57:34;4.30;;;1.55;;
67065;SDS011;53978;43.846;25.952;2023-05-07T14:00:00;6.45;;;1.70;;
67065;SDS011;53978;43.846;25.952;2023-05-07T14:02:28;1.95;;;1.45;;
67065;SDS011;53978;43.846;25.952;2023-05-07T14:04:56;2.20;;;1.60;;
67065;SDS011;53978;43.846;25.952;2023-05-07T14:07:24;3.30;;;1.70;;
67065;SDS011;53978;43.846;25.952;2023-05-07T14:09:49;2.40;;;1.42;;
67065;SDS011;53978;43.846;25.952;2023-05-07T14:12:15;4.03;;;1.60;;
67065;SDS011;53978;43.846;25.952;2023-05-07T14:14:42;2.38;;;1.42;;
67065;SDS011;53978;43.846;25.952;2023-05-07T14:17:08;2.05;;;1.40;;
67065;SDS011;53978;43.846;25.952;2023-05-07T14:19:33;6.03;;;1.50;;
67065;SDS011;53978;43.846;25.952;2023-05-07T14:21:59;2.10;;;1.50;;
67065;SDS011;53978;43.846;25.952;2023-05-07T14:24:24;3.88;;;1.67;;
67065;SDS011;53978;43.846;25.952;2023-05-07T14:26:50;1.60;;;1.33;;
67065;SDS011;53978;43.846;25.952;2023-05-07T14:29:18;4.50;;;1.80;;
67065;SDS011;53978;43.846;25.952;2023-05-07T14:31:44;4.85;;;1.88;;
67065;SDS011;53978;43.846;25.952;2023-05-07T14:34:10;1.50;;;1.40;;
67065;SDS011;53978;43.846;25.952;2023-05-07T14:36:35;3.33;;;1.50;;
67065;SDS011;53978;43.846;25.952;2023-05-07T14:39:01;3.80;;;1.80;;
67065;SDS011;53978;43.846;25.952;2023-05-07T14:41:27;2.45;;;1.42;;
67065;SDS011;53978;43.846;25.952;2023-05-07T14:43:52;1.88;;;1.52;;
67065;SDS011;53978;43.846;25.952;2023-05-07T14:46:20;3.65;;;1.73;;
67065;SDS011;53978;43.846;25.952;2023-05-07T14:48:46;2.33;;;1.60;;
67065;SDS011;53978;43.846;25.952;2023-05-07T14:51:14;3.60;;;1.80;;
67065;SDS011;53978;43.846;25.952;2023-05-07T14:53:43;3.00;;;1.75;;